Flight Track Log - Related Links

Times and Time Zones

All times are in EDT time to prevent confusion due to time zone crossing. See the N75AW flight status page for this flight to view local times or setup timezone preferences in your user account.

Time Position Orientation Groundspeed Altitude Reporting Facility
EDT Latitude Longitude Course Direction KTS MPH feet Rate Location/Type
Thu 06:35:42 AM 26.1306 -81.6719 354° North 222 255 4,000  Level Miami Center
Thu 06:36:42 AM 26.1889 -81.6814 352° North 210 242 5,700 1,700 Climbing Miami Center
Thu 06:37:42 AM 26.2492 -81.6883 354° North 215 247 7,400 1,650 Climbing Miami Center
Thu 06:38:42 AM 26.3075 -81.6931 356° North 234 269 9,000 1,550 Climbing Miami Center
Thu 06:39:00 AM 26.4608 -81.8049 354° North  Level FlightAware Approximate
Thu 06:39:42 AM 26.3656 -81.7025 352° North 226 260 10,500  Level Miami Center
Thu 06:40:00 AM 26.5231 -81.8118 354° North  Level FlightAware Approximate
Thu 06:40:42 AM 26.4172 -81.7161 347° North 219 252 12,100  Level Miami Center
Thu 06:41:00 AM 26.5855 -81.8188 354° North  Level FlightAware Approximate
Thu 06:41:42 AM 26.4833 -81.7350 346° North 219 252 13,700  Level Miami Center
Thu 06:42:42 AM 26.5436 -81.7469 350° North 219 252 15,300 1,600 Climbing Miami Center
Thu 06:43:42 AM 26.6058 -81.7611 348° North 219 252 16,900 1,450 Climbing Miami Center
Thu 06:44:42 AM 26.6681 -81.7728 350° North 219 252 18,200 600 Climbing Miami Center
Thu 06:45:42 AM 26.7364 -81.7897 348° North 225 259 18,100 -50 Descending Miami Center
Thu 06:46:41 AM 26.8089 -81.8044 350° North 250 288 18,100  Level Miami Center
Thu 06:47:42 AM 26.8833 -81.8214 349° North 264 304 18,100  Level Miami Center
Thu 06:48:42 AM 26.9603 -81.8364 350° North 269 310 18,100  Level Miami Center
Thu 06:49:41 AM 27.0286 -81.8486 351° North 281 323 18,100  Level Miami Center
Thu 06:50:42 AM 27.1156 -81.8689 348° North 281 323 18,100  Level Miami Center
Thu 06:51:42 AM 27.1861 -81.8836 349° North 272 313 18,100  Level Miami Center
Thu 06:52:41 AM 27.2628 -81.9008 349° North 272 313 18,100  Level Miami Center
Thu 06:53:41 AM 27.3333 -81.9108 353° North 279 321 18,100  Level Miami Center
Thu 06:54:42 AM 27.4081 -81.9211 353° North 273 314 18,100  Level Miami Center
Thu 06:55:42 AM 27.4911 -81.9367 351° North 272 313 18,100  Level Miami Center
Thu 06:56:42 AM 27.5678 -81.9469 353° North 277 319 18,100  Level Miami Center
Thu 06:57:41 AM 27.6447 -81.9575 353° North 277 319 18,100  Level Miami Center
Thu 06:59:50 AM 27.8150 -81.9844 352° North 278 320 18,100  Level Jacksonville Center
Thu 07:00:50 AM 27.8944 -81.9981 351° North 278 320 18,100  Level Jacksonville Center
Thu 07:01:50 AM 27.9694 -82.0092 353° North 278 320 18,100  Level Jacksonville Center
Thu 07:02:50 AM 28.0489 -82.0225 352° North 278 320 18,100  Level Jacksonville Center
Thu 07:03:50 AM 28.1261 -82.0336 353° North 278 320 18,100 -50 Level Jacksonville Center
Thu 07:04:50 AM 28.2056 -82.0469 352° North 278 320 18,000 -500 Descending Jacksonville Center
Thu 07:05:50 AM 28.2869 -82.0581 353° North 278 320 17,100 -950 Descending Jacksonville Center
Thu 07:06:50 AM 28.3706 -82.0717 352° North 289 333 16,100 -1,000 Descending Jacksonville Center
Thu 07:07:50 AM 28.4519 -82.0850 352° North 296 341 15,100 -900 Descending Jacksonville Center
Thu 07:08:50 AM 28.5336 -82.0986 352° North 296 341 14,300 -513 Descending Jacksonville Center
Thu 07:09:47 AM 28.6025 -82.1100 352° North 280 322 14,100 -645 Descending Jacksonville Center
Thu 07:10:23 AM 28.6483 -82.1167 353° North 275 316 13,300 -1,361 Descending Jacksonville Center
Thu 07:11:24 AM 28.7300 -82.1278 353° North 291 335 11,900 -1,388 Descending Jacksonville Center
Thu 07:12:24 AM 28.8156 -82.1414 352° North 294 338 10,500 -939 Descending Jacksonville Center
Thu 07:13:19 AM 28.8825 -82.1503 353° North 287 330 10,100 -279 Descending Jacksonville Center
Thu 07:13:50 AM 28.9219 -82.1572 351° North 282 325 10,100  Level Jacksonville Center
Thu 07:14:50 AM 28.9869 -82.1661 353° North 261 300 10,100  Level Jacksonville Center
Thu 07:15:20 AM 29.0308 -82.1731 352° North 253 291 10,100  Level Jacksonville Center
Thu 07:15:50 AM 29.0558 -82.1775 351° North 256 295 10,100  Level Jacksonville Center
Thu 07:16:27 AM 29.1058 -82.1844 353° North 255 293 10,100 -250 Level Jacksonville Center
Thu 07:17:50 AM 29.2000 -82.2003 352° North 256 295 9,600 -694 Descending Jacksonville Center
Thu 07:18:28 AM 29.2583 -82.2069 354° North 273 314 8,700 -1,371 Descending Jacksonville Center
Thu 07:19:35 AM 29.3400 -82.2231 350° North 277 319 7,200 -1,359 Descending Jacksonville Center
Thu 07:20:36 AM 29.4089 -82.2322 353° North 267 307 5,800 -1,438 Descending Jacksonville Center
Thu 07:21:36 AM 29.4883 -82.2436 353° North 254 292 4,300 -1,461 Descending Jacksonville Center
Thu 07:22:31 AM 29.5508 -82.2553 351° North 250 288 3,000 -1,241 Descending Jacksonville Center
Thu 07:23:32 AM 29.6136 -82.2714 347° North 235 270 1,900 -694 Descending Jacksonville Center
Thu 07:24:32 AM 29.6617 -82.3047 329° Northwest 190 219 1,600 -300 Descending Jacksonville Center
Thu 07:26:00 AM 29.6833 -82.2667 350° North  Level FlightAware Approximate
Thu 07:33:00 AM 29.6901 -82.2718 350° North  Level Estimated

Login

Don't have an account? Register now (free) for customized features, flight alerts, and more!